sensor_id;sensor_type;location;lat;lon;timestamp;P1;durP1;ratioP1;P2;durP2;ratioP2
19036;SDS011;9651;49.138;8.900;2023-05-07T00:00:21;5.07;;;3.40;;
19036;SDS011;9651;49.138;8.900;2023-05-07T00:04:23;3.55;;;3.25;;
19036;SDS011;9651;49.138;8.900;2023-05-07T00:08:26;4.72;;;3.03;;
19036;SDS011;9651;49.138;8.900;2023-05-07T00:12:28;3.58;;;2.92;;
19036;SDS011;9651;49.138;8.900;2023-05-07T00:16:31;6.00;;;3.10;;
19036;SDS011;9651;49.138;8.900;2023-05-07T00:20:33;6.82;;;3.40;;
19036;SDS011;9651;49.138;8.900;2023-05-07T00:24:36;4.50;;;3.90;;
19036;SDS011;9651;49.138;8.900;2023-05-07T00:28:38;4.75;;;3.30;;
19036;SDS011;9651;49.138;8.900;2023-05-07T00:32:41;6.18;;;3.35;;
19036;SDS011;9651;49.138;8.900;2023-05-07T00:36:45;6.68;;;3.22;;
19036;SDS011;9651;49.138;8.900;2023-05-07T00:40:48;3.28;;;2.75;;
19036;SDS011;9651;49.138;8.900;2023-05-07T00:44:51;4.07;;;2.70;;
19036;SDS011;9651;49.138;8.900;2023-05-07T00:48:53;4.88;;;3.15;;
19036;SDS011;9651;49.138;8.900;2023-05-07T00:52:55;4.88;;;2.83;;
19036;SDS011;9651;49.138;8.900;2023-05-07T00:56:58;3.47;;;2.83;;
19036;SDS011;9651;49.138;8.900;2023-05-07T01:01:01;3.05;;;2.60;;
19036;SDS011;9651;49.138;8.900;2023-05-07T01:05:03;3.95;;;2.75;;
19036;SDS011;9651;49.138;8.900;2023-05-07T01:09:09;3.47;;;3.17;;
19036;SDS011;9651;49.138;8.900;2023-05-07T01:13:13;5.68;;;3.08;;
19036;SDS011;9651;49.138;8.900;2023-05-07T01:17:16;3.55;;;2.97;;
19036;SDS011;9651;49.138;8.900;2023-05-07T01:21:20;3.38;;;2.80;;
19036;SDS011;9651;49.138;8.900;2023-05-07T01:25:30;4.03;;;3.35;;
19036;SDS011;9651;49.138;8.900;2023-05-07T01:29:34;4.63;;;3.03;;
19036;SDS011;9651;49.138;8.900;2023-05-07T01:33:36;6.13;;;3.10;;
19036;SDS011;9651;49.138;8.900;2023-05-07T01:37:41;3.22;;;2.63;;
19036;SDS011;9651;49.138;8.900;2023-05-07T01:41:45;3.20;;;2.90;;
19036;SDS011;9651;49.138;8.900;2023-05-07T01:45:47;3.90;;;2.85;;
19036;SDS011;9651;49.138;8.900;2023-05-07T01:49:50;5.05;;;3.22;;
19036;SDS011;9651;49.138;8.900;2023-05-07T01:53:52;4.03;;;2.83;;
19036;SDS011;9651;49.138;8.900;2023-05-07T01:57:56;3.72;;;3.10;;
19036;SDS011;9651;49.138;8.900;2023-05-07T02:01:57;7.00;;;3.75;;
19036;SDS011;9651;49.138;8.900;2023-05-07T02:06:01;3.35;;;3.05;;
19036;SDS011;9651;49.138;8.900;2023-05-07T02:10:07;5.18;;;3.30;;
19036;SDS011;9651;49.138;8.900;2023-05-07T02:14:11;5.47;;;2.97;;
19036;SDS011;9651;49.138;8.900;2023-05-07T02:18:13;4.68;;;3.33;;
19036;SDS011;9651;49.138;8.900;2023-05-07T02:22:15;5.80;;;3.63;;
19036;SDS011;9651;49.138;8.900;2023-05-07T02:26:17;5.10;;;3.35;;
19036;SDS011;9651;49.138;8.900;2023-05-07T02:30:21;3.00;;;2.60;;
19036;SDS011;9651;49.138;8.900;2023-05-07T02:34:26;3.67;;;3.03;;
19036;SDS011;9651;49.138;8.900;2023-05-07T02:38:28;6.00;;;3.47;;
19036;SDS011;9651;49.138;8.900;2023-05-07T02:42:30;3.78;;;3.40;;
19036;SDS011;9651;49.138;8.900;2023-05-07T02:46:34;7.18;;;3.13;;
19036;SDS011;9651;49.138;8.900;2023-05-07T02:50:41;4.78;;;3.13;;
19036;SDS011;9651;49.138;8.900;2023-05-07T02:54:46;4.40;;;3.25;;
19036;SDS011;9651;49.138;8.900;2023-05-07T02:58:48;3.30;;;3.00;;
19036;SDS011;9651;49.138;8.900;2023-05-07T03:02:53;3.30;;;3.00;;
19036;SDS011;9651;49.138;8.900;2023-05-07T03:06:56;3.90;;;3.25;;
19036;SDS011;9651;49.138;8.900;2023-05-07T03:10:58;3.72;;;2.83;;
19036;SDS011;9651;49.138;8.900;2023-05-07T03:15:00;4.63;;;3.45;;
19036;SDS011;9651;49.138;8.900;2023-05-07T03:19:03;6.20;;;3.20;;
19036;SDS011;9651;49.138;8.900;2023-05-07T03:23:05;4.30;;;3.90;;
19036;SDS011;9651;49.138;8.900;2023-05-07T03:27:08;3.97;;;3.60;;
19036;SDS011;9651;49.138;8.900;2023-05-07T03:31:10;4.13;;;3.67;;
19036;SDS011;9651;49.138;8.900;2023-05-07T03:35:14;4.22;;;3.83;;
19036;SDS011;9651;49.138;8.900;2023-05-07T03:39:16;4.00;;;3.53;;
19036;SDS011;9651;49.138;8.900;2023-05-07T03:43:18;4.65;;;3.42;;
19036;SDS011;9651;49.138;8.900;2023-05-07T03:47:25;4.05;;;3.45;;
19036;SDS011;9651;49.138;8.900;2023-05-07T03:51:29;5.35;;;3.60;;
19036;SDS011;9651;49.138;8.900;2023-05-07T03:55:31;3.75;;;3.35;;
19036;SDS011;9651;49.138;8.900;2023-05-07T03:59:34;5.38;;;3.47;;
19036;SDS011;9651;49.138;8.900;2023-05-07T04:03:36;3.50;;;3.20;;
19036;SDS011;9651;49.138;8.900;2023-05-07T04:07:40;7.18;;;3.38;;
19036;SDS011;9651;49.138;8.900;2023-05-07T04:11:42;3.60;;;3.10;;
19036;SDS011;9651;49.138;8.900;2023-05-07T04:15:45;7.45;;;4.05;;
19036;SDS011;9651;49.138;8.900;2023-05-07T04:19:51;6.63;;;3.72;;
19036;SDS011;9651;49.138;8.900;2023-05-07T04:23:55;5.57;;;3.08;;
19036;SDS011;9651;49.138;8.900;2023-05-07T04:27:57;4.35;;;3.60;;
19036;SDS011;9651;49.138;8.900;2023-05-07T04:32:01;6.05;;;3.45;;
19036;SDS011;9651;49.138;8.900;2023-05-07T04:36:04;3.88;;;3.35;;
19036;SDS011;9651;49.138;8.900;2023-05-07T04:40:13;3.05;;;2.78;;
19036;SDS011;9651;49.138;8.900;2023-05-07T04:44:16;4.70;;;3.25;;
19036;SDS011;9651;49.138;8.900;2023-05-07T04:48:19;3.88;;;3.33;;
19036;SDS011;9651;49.138;8.900;2023-05-07T04:52:22;3.28;;;2.88;;
19036;SDS011;9651;49.138;8.900;2023-05-07T04:56:28;4.55;;;3.25;;
19036;SDS011;9651;49.138;8.900;2023-05-07T05:00:31;4.53;;;2.70;;
19036;SDS011;9651;49.138;8.900;2023-05-07T05:04:34;4.85;;;2.85;;
19036;SDS011;9651;49.138;8.900;2023-05-07T05:08:37;3.42;;;3.10;;
19036;SDS011;9651;49.138;8.900;2023-05-07T05:12:40;4.00;;;3.03;;
19036;SDS011;9651;49.138;8.900;2023-05-07T05:16:42;3.20;;;2.80;;
19036;SDS011;9651;49.138;8.900;2023-05-07T05:20:44;3.28;;;2.85;;
19036;SDS011;9651;49.138;8.900;2023-05-07T05:24:46;5.53;;;3.38;;
19036;SDS011;9651;49.138;8.900;2023-05-07T05:28:50;4.60;;;2.55;;
19036;SDS011;9651;49.138;8.900;2023-05-07T05:32:54;2.97;;;2.67;;
19036;SDS011;9651;49.138;8.900;2023-05-07T05:36:56;5.05;;;2.50;;
19036;SDS011;9651;49.138;8.900;2023-05-07T05:40:59;3.65;;;2.85;;
19036;SDS011;9651;49.138;8.900;2023-05-07T05:45:05;3.03;;;2.45;;
19036;SDS011;9651;49.138;8.900;2023-05-07T05:49:08;3.90;;;2.78;;
19036;SDS011;9651;49.138;8.900;2023-05-07T05:53:12;3.88;;;2.40;;
19036;SDS011;9651;49.138;8.900;2023-05-07T05:57:13;3.13;;;2.83;;
19036;SDS011;9651;49.138;8.900;2023-05-07T06:01:18;3.55;;;2.70;;
19036;SDS011;9651;49.138;8.900;2023-05-07T06:05:21;4.10;;;2.40;;
19036;SDS011;9651;49.138;8.900;2023-05-07T06:09:26;3.33;;;2.80;;
19036;SDS011;9651;49.138;8.900;2023-05-07T06:13:28;4.15;;;2.45;;
19036;SDS011;9651;49.138;8.900;2023-05-07T06:17:32;3.50;;;2.67;;
19036;SDS011;9651;49.138;8.900;2023-05-07T06:21:33;3.45;;;2.30;;
19036;SDS011;9651;49.138;8.900;2023-05-07T06:25:36;2.92;;;2.63;;
19036;SDS011;9651;49.138;8.900;2023-05-07T06:29:38;4.60;;;2.60;;
19036;SDS011;9651;49.138;8.900;2023-05-07T06:33:48;3.95;;;2.63;;
19036;SDS011;9651;49.138;8.900;2023-05-07T06:37:50;5.18;;;2.92;;
19036;SDS011;9651;49.138;8.900;2023-05-07T06:41:57;4.43;;;2.70;;
19036;SDS011;9651;49.138;8.900;2023-05-07T06:46:04;3.15;;;2.42;;
19036;SDS011;9651;49.138;8.900;2023-05-07T06:50:09;2.65;;;2.33;;
19036;SDS011;9651;49.138;8.900;2023-05-07T06:54:12;3.05;;;2.65;;
19036;SDS011;9651;49.138;8.900;2023-05-07T06:58:15;3.22;;;2.50;;
19036;SDS011;9651;49.138;8.900;2023-05-07T07:02:17;2.78;;;2.58;;
19036;SDS011;9651;49.138;8.900;2023-05-07T07:06:22;2.95;;;2.50;;
19036;SDS011;9651;49.138;8.900;2023-05-07T07:10:24;3.53;;;2.85;;
19036;SDS011;9651;49.138;8.900;2023-05-07T07:14:28;5.55;;;2.60;;
19036;SDS011;9651;49.138;8.900;2023-05-07T07:18:30;3.10;;;2.20;;
19036;SDS011;9651;49.138;8.900;2023-05-07T07:22:34;2.85;;;2.47;;
19036;SDS011;9651;49.138;8.900;2023-05-07T07:26:37;5.03;;;2.95;;
19036;SDS011;9651;49.138;8.900;2023-05-07T07:30:40;4.05;;;2.47;;
19036;SDS011;9651;49.138;8.900;2023-05-07T07:34:42;2.85;;;2.38;;
19036;SDS011;9651;49.138;8.900;2023-05-07T07:38:47;4.13;;;2.45;;
19036;SDS011;9651;49.138;8.900;2023-05-07T07:42:51;2.92;;;2.50;;
19036;SDS011;9651;49.138;8.900;2023-05-07T07:46:53;4.00;;;2.42;;
19036;SDS011;9651;49.138;8.900;2023-05-07T07:50:57;3.63;;;2.47;;
19036;SDS011;9651;49.138;8.900;2023-05-07T07:55:00;2.70;;;1.83;;
19036;SDS011;9651;49.138;8.900;2023-05-07T07:59:02;4.78;;;2.38;;
19036;SDS011;9651;49.138;8.900;2023-05-07T08:03:06;2.42;;;2.20;;
19036;SDS011;9651;49.138;8.900;2023-05-07T08:07:15;7.35;;;2.60;;
19036;SDS011;9651;49.138;8.900;2023-05-07T08:11:22;2.97;;;1.77;;
19036;SDS011;9651;49.138;8.900;2023-05-07T08:15:27;2.17;;;1.98;;
19036;SDS011;9651;49.138;8.900;2023-05-07T08:19:29;7.97;;;2.13;;
19036;SDS011;9651;49.138;8.900;2023-05-07T08:23:31;3.35;;;2.28;;
19036;SDS011;9651;49.138;8.900;2023-05-07T08:27:36;4.03;;;1.85;;
19036;SDS011;9651;49.138;8.900;2023-05-07T08:31:38;2.33;;;2.13;;
19036;SDS011;9651;49.138;8.900;2023-05-07T08:35:40;2.85;;;2.03;;
19036;SDS011;9651;49.138;8.900;2023-05-07T08:39:44;2.92;;;1.98;;
19036;SDS011;9651;49.138;8.900;2023-05-07T08:43:54;2.10;;;1.90;;
19036;SDS011;9651;49.138;8.900;2023-05-07T08:48:01;3.17;;;2.00;;
19036;SDS011;9651;49.138;8.900;2023-05-07T08:52:08;3.10;;;1.92;;
19036;SDS011;9651;49.138;8.900;2023-05-07T08:56:11;2.53;;;1.65;;
19036;SDS011;9651;49.138;8.900;2023-05-07T09:00:17;3.00;;;2.42;;
19036;SDS011;9651;49.138;8.900;2023-05-07T09:04:22;3.58;;;1.80;;
19036;SDS011;9651;49.138;8.900;2023-05-07T09:08:25;2.22;;;2.03;;
19036;SDS011;9651;49.138;8.900;2023-05-07T09:12:31;2.33;;;1.73;;
19036;SDS011;9651;49.138;8.900;2023-05-07T09:16:40;2.40;;;2.10;;
19036;SDS011;9651;49.138;8.900;2023-05-07T09:20:43;5.20;;;1.80;;
19036;SDS011;9651;49.138;8.900;2023-05-07T09:24:47;3.08;;;2.22;;
19036;SDS011;9651;49.138;8.900;2023-05-07T09:28:49;5.90;;;2.53;;
19036;SDS011;9651;49.138;8.900;2023-05-07T09:32:55;3.55;;;2.17;;
19036;SDS011;9651;49.138;8.900;2023-05-07T09:36:58;2.60;;;2.20;;
19036;SDS011;9651;49.138;8.900;2023-05-07T09:41:02;3.55;;;2.50;;
19036;SDS011;9651;49.138;8.900;2023-05-07T09:45:08;3.58;;;2.20;;
19036;SDS011;9651;49.138;8.900;2023-05-07T09:49:16;2.67;;;2.40;;
19036;SDS011;9651;49.138;8.900;2023-05-07T09:53:23;2.88;;;2.50;;
19036;SDS011;9651;49.138;8.900;2023-05-07T09:57:28;4.65;;;1.95;;
19036;SDS011;9651;49.138;8.900;2023-05-07T10:01:36;4.72;;;2.33;;
19036;SDS011;9651;49.138;8.900;2023-05-07T10:05:40;5.25;;;2.17;;
19036;SDS011;9651;49.138;8.900;2023-05-07T10:09:45;6.65;;;2.38;;
19036;SDS011;9651;49.138;8.900;2023-05-07T10:13:56;2.58;;;2.28;;
19036;SDS011;9651;49.138;8.900;2023-05-07T10:17:58;2.10;;;1.98;;
19036;SDS011;9651;49.138;8.900;2023-05-07T10:22:04;4.75;;;2.13;;
19036;SDS011;9651;49.138;8.900;2023-05-07T10:26:12;2.65;;;2.20;;
19036;SDS011;9651;49.138;8.900;2023-05-07T10:30:19;3.40;;;2.28;;
19036;SDS011;9651;49.138;8.900;2023-05-07T10:34:29;3.22;;;2.50;;
19036;SDS011;9651;49.138;8.900;2023-05-07T10:38:38;3.80;;;2.33;;
19036;SDS011;9651;49.138;8.900;2023-05-07T10:42:52;4.00;;;2.20;;
19036;SDS011;9651;49.138;8.900;2023-05-07T10:47:06;4.40;;;3.85;;
19036;SDS011;9651;49.138;8.900;2023-05-07T10:51:19;6.70;;;6.07;;
19036;SDS011;9651;49.138;8.900;2023-05-07T10:55:27;3.08;;;2.15;;
19036;SDS011;9651;49.138;8.900;2023-05-07T10:59:38;4.03;;;2.50;;
19036;SDS011;9651;49.138;8.900;2023-05-07T11:04:13;2.70;;;1.50;;
19036;SDS011;9651;49.138;8.900;2023-05-07T11:08:24;2.63;;;1.70;;
19036;SDS011;9651;49.138;8.900;2023-05-07T11:12:49;1.55;;;1.45;;
19036;SDS011;9651;49.138;8.900;2023-05-07T11:17:04;6.82;;;4.82;;
19036;SDS011;9651;49.138;8.900;2023-05-07T11:21:08;2.80;;;2.00;;
19036;SDS011;9651;49.138;8.900;2023-05-07T11:25:18;2.50;;;1.65;;
19036;SDS011;9651;49.138;8.900;2023-05-07T11:29:26;2.28;;;2.08;;
19036;SDS011;9651;49.138;8.900;2023-05-07T11:33:49;1.98;;;1.75;;
19036;SDS011;9651;49.138;8.900;2023-05-07T11:37:57;2.78;;;2.00;;
19036;SDS011;9651;49.138;8.900;2023-05-07T11:42:02;7.53;;;4.03;;
19036;SDS011;9651;49.138;8.900;2023-05-07T11:46:07;3.35;;;2.10;;
19036;SDS011;9651;49.138;8.900;2023-05-07T11:50:10;4.55;;;3.55;;
19036;SDS011;9651;49.138;8.900;2023-05-07T11:54:14;6.85;;;6.15;;
19036;SDS011;9651;49.138;8.900;2023-05-07T11:58:20;5.43;;;3.17;;
19036;SDS011;9651;49.138;8.900;2023-05-07T12:02:25;1.60;;;1.50;;
19036;SDS011;9651;49.138;8.900;2023-05-07T12:06:28;1.60;;;1.50;;
19036;SDS011;9651;49.138;8.900;2023-05-07T12:10:30;2.03;;;1.75;;
19036;SDS011;9651;49.138;8.900;2023-05-07T12:14:32;2.42;;;2.00;;
19036;SDS011;9651;49.138;8.900;2023-05-07T12:18:38;1.73;;;1.63;;
19036;SDS011;9651;49.138;8.900;2023-05-07T12:22:40;1.55;;;1.33;;
19036;SDS011;9651;49.138;8.900;2023-05-07T12:26:43;2.15;;;1.80;;
19036;SDS011;9651;49.138;8.900;2023-05-07T12:30:47;2.17;;;1.80;;
19036;SDS011;9651;49.138;8.900;2023-05-07T12:34:52;4.70;;;1.58;;
19036;SDS011;9651;49.138;8.900;2023-05-07T12:38:57;1.83;;;1.73;;
19036;SDS011;9651;49.138;8.900;2023-05-07T12:43:01;1.65;;;1.42;;
19036;SDS011;9651;49.138;8.900;2023-05-07T12:47:03;3.15;;;1.48;;
19036;SDS011;9651;49.138;8.900;2023-05-07T12:51:06;2.17;;;1.33;;
19036;SDS011;9651;49.138;8.900;2023-05-07T12:55:12;2.45;;;1.38;;
19036;SDS011;9651;49.138;8.900;2023-05-07T12:59:15;3.75;;;1.90;;
19036;SDS011;9651;49.138;8.900;2023-05-07T13:03:23;1.63;;;1.50;;
19036;SDS011;9651;49.138;8.900;2023-05-07T13:07:28;3.33;;;1.75;;
19036;SDS011;9651;49.138;8.900;2023-05-07T13:11:30;2.33;;;1.40;;
19036;SDS011;9651;49.138;8.900;2023-05-07T13:15:32;3.22;;;1.70;;
19036;SDS011;9651;49.138;8.900;2023-05-07T13:19:34;3.58;;;1.50;;
19036;SDS011;9651;49.138;8.900;2023-05-07T13:23:38;2.05;;;1.50;;
19036;SDS011;9651;49.138;8.900;2023-05-07T13:27:41;4.25;;;1.40;;
19036;SDS011;9651;49.138;8.900;2023-05-07T13:31:43;1.48;;;1.38;;
19036;SDS011;9651;49.138;8.900;2023-05-07T13:35:45;2.42;;;1.65;;
19036;SDS011;9651;49.138;8.900;2023-05-07T13:39:49;4.75;;;1.95;;
19036;SDS011;9651;49.138;8.900;2023-05-07T13:43:51;3.63;;;1.83;;
19036;SDS011;9651;49.138;8.900;2023-05-07T13:47:53;2.08;;;1.30;;
19036;SDS011;9651;49.138;8.900;2023-05-07T13:51:55;3.65;;;1.63;;
19036;SDS011;9651;49.138;8.900;2023-05-07T13:55:58;1.30;;;1.20;;
19036;SDS011;9651;49.138;8.900;2023-05-07T14:00:00;1.85;;;1.70;;
19036;SDS011;9651;49.138;8.900;2023-05-07T14:04:02;1.88;;;1.27;;
19036;SDS011;9651;49.138;8.900;2023-05-07T14:08:04;1.73;;;1.60;;
19036;SDS011;9651;49.138;8.900;2023-05-07T14:12:09;1.92;;;1.48;;
19036;SDS011;9651;49.138;8.900;2023-05-07T14:16:11;7.10;;;1.60;;
19036;SDS011;9651;49.138;8.900;2023-05-07T14:20:13;5.28;;;1.95;;
19036;SDS011;9651;49.138;8.900;2023-05-07T14:24:14;7.85;;;2.90;;
19036;SDS011;9651;49.138;8.900;2023-05-07T14:28:18;7.07;;;2.30;;
19036;SDS011;9651;49.138;8.900;2023-05-07T14:32:20;8.00;;;2.58;;
19036;SDS011;9651;49.138;8.900;2023-05-07T14:36:23;5.50;;;2.25;;
19036;SDS011;9651;49.138;8.900;2023-05-07T14:40:26;3.60;;;1.50;;
19036;SDS011;9651;49.138;8.900;2023-05-07T14:44:29;4.18;;;1.88;;
19036;SDS011;9651;49.138;8.900;2023-05-07T14:48:31;3.40;;;2.10;;
19036;SDS011;9651;49.138;8.900;2023-05-07T14:52:33;8.05;;;2.00;;
19036;SDS011;9651;49.138;8.900;2023-05-07T14:56:35;5.30;;;2.15;;
19036;SDS011;9651;49.138;8.900;2023-05-07T15:00:38;4.50;;;2.00;;
19036;SDS011;9651;49.138;8.900;2023-05-07T15:04:40;3.85;;;1.73;;
19036;SDS011;9651;49.138;8.900;2023-05-07T15:08:45;2.22;;;1.80;;
19036;SDS011;9651;49.138;8.900;2023-05-07T15:12:48;1.92;;;1.48;;
19036;SDS011;9651;49.138;8.900;2023-05-07T15:16:51;4.32;;;2.30;;
19036;SDS011;9651;49.138;8.900;2023-05-07T15:20:54;4.43;;;2.42;;
19036;SDS011;9651;49.138;8.900;2023-05-07T15:24:56;7.28;;;2.63;;
19036;SDS011;9651;49.138;8.900;2023-05-07T15:28:58;7.25;;;2.88;;
19036;SDS011;9651;49.138;8.900;2023-05-07T15:33:04;4.68;;;2.50;;
19036;SDS011;9651;49.138;8.900;2023-05-07T15:37:06;5.47;;;2.88;;
19036;SDS011;9651;49.138;8.900;2023-05-07T15:41:08;4.72;;;2.30;;
19036;SDS011;9651;49.138;8.900;2023-05-07T15:45:10;6.07;;;3.03;;
19036;SDS011;9651;49.138;8.900;2023-05-07T15:49:14;8.75;;;3.97;;
19036;SDS011;9651;49.138;8.900;2023-05-07T15:53:16;2.85;;;2.03;;
19036;SDS011;9651;49.138;8.900;2023-05-07T15:57:18;2.90;;;2.45;;
19036;SDS011;9651;49.138;8.900;2023-05-07T16:01:21;4.75;;;2.25;;
19036;SDS011;9651;49.138;8.900;2023-05-07T16:05:24;4.22;;;2.40;;
19036;SDS011;9651;49.138;8.900;2023-05-07T16:09:26;7.47;;;2.28;;
19036;SDS011;9651;49.138;8.900;2023-05-07T16:13:28;4.97;;;2.10;;
19036;SDS011;9651;49.138;8.900;2023-05-07T16:17:30;5.22;;;2.05;;
19036;SDS011;9651;49.138;8.900;2023-05-07T16:21:33;3.88;;;2.05;;
19036;SDS011;9651;49.138;8.900;2023-05-07T16:25:35;5.22;;;2.33;;
19036;SDS011;9651;49.138;8.900;2023-05-07T16:29:37;2.70;;;2.10;;
19036;SDS011;9651;49.138;8.900;2023-05-07T16:33:39;2.97;;;2.22;;
19036;SDS011;9651;49.138;8.900;2023-05-07T16:37:42;4.72;;;2.47;;
19036;SDS011;9651;49.138;8.900;2023-05-07T16:41:44;3.05;;;1.83;;
19036;SDS011;9651;49.138;8.900;2023-05-07T16:45:47;5.00;;;1.77;;
19036;SDS011;9651;49.138;8.900;2023-05-07T16:49:49;3.72;;;2.28;;
19036;SDS011;9651;49.138;8.900;2023-05-07T16:53:53;6.38;;;2.15;;
19036;SDS011;9651;49.138;8.900;2023-05-07T16:57:55;5.75;;;3.33;;
19036;SDS011;9651;49.138;8.900;2023-05-07T17:01:56;13.57;;;8.23;;
19036;SDS011;9651;49.138;8.900;2023-05-07T17:05:58;5.00;;;2.95;;
19036;SDS011;9651;49.138;8.900;2023-05-07T17:10:02;4.22;;;2.88;;
19036;SDS011;9651;49.138;8.900;2023-05-07T17:14:04;3.47;;;1.60;;
19036;SDS011;9651;49.138;8.900;2023-05-07T17:18:06;3.17;;;2.15;;
19036;SDS011;9651;49.138;8.900;2023-05-07T17:22:08;2.75;;;2.30;;
19036;SDS011;9651;49.138;8.900;2023-05-07T17:26:12;7.55;;;2.70;;
19036;SDS011;9651;49.138;8.900;2023-05-07T17:30:14;6.00;;;2.85;;
19036;SDS011;9651;49.138;8.900;2023-05-07T17:34:15;6.25;;;3.35;;
19036;SDS011;9651;49.138;8.900;2023-05-07T17:38:17;4.13;;;2.35;;
19036;SDS011;9651;49.138;8.900;2023-05-07T17:42:21;4.43;;;2.80;;
19036;SDS011;9651;49.138;8.900;2023-05-07T17:46:23;3.55;;;2.10;;
19036;SDS011;9651;49.138;8.900;2023-05-07T17:50:24;3.25;;;1.75;;
19036;SDS011;9651;49.138;8.900;2023-05-07T17:54:26;3.17;;;1.80;;
19036;SDS011;9651;49.138;8.900;2023-05-07T17:58:30;2.92;;;1.92;;
19036;SDS011;9651;49.138;8.900;2023-05-07T18:02:32;4.82;;;2.40;;
19036;SDS011;9651;49.138;8.900;2023-05-07T18:06:34;2.53;;;1.95;;
19036;SDS011;9651;49.138;8.900;2023-05-07T18:10:36;3.30;;;2.20;;
19036;SDS011;9651;49.138;8.900;2023-05-07T18:14:39;3.70;;;2.00;;
19036;SDS011;9651;49.138;8.900;2023-05-07T18:18:42;4.57;;;2.13;;
19036;SDS011;9651;49.138;8.900;2023-05-07T18:22:45;3.85;;;2.65;;
19036;SDS011;9651;49.138;8.900;2023-05-07T18:26:47;4.75;;;2.92;;
19036;SDS011;9651;49.138;8.900;2023-05-07T18:30:51;2.80;;;2.50;;
19036;SDS011;9651;49.138;8.900;2023-05-07T18:34:52;4.75;;;2.80;;
19036;SDS011;9651;49.138;8.900;2023-05-07T18:38:54;4.95;;;3.00;;
19036;SDS011;9651;49.138;8.900;2023-05-07T18:42:56;4.18;;;3.42;;
19036;SDS011;9651;49.138;8.900;2023-05-07T18:47:01;6.15;;;3.78;;
19036;SDS011;9651;49.138;8.900;2023-05-07T18:51:02;4.43;;;3.33;;
19036;SDS011;9651;49.138;8.900;2023-05-07T18:55:05;5.78;;;3.88;;
19036;SDS011;9651;49.138;8.900;2023-05-07T18:59:08;3.65;;;3.15;;
19036;SDS011;9651;49.138;8.900;2023-05-07T19:03:12;6.30;;;3.50;;
19036;SDS011;9651;49.138;8.900;2023-05-07T19:07:15;4.13;;;3.72;;
19036;SDS011;9651;49.138;8.900;2023-05-07T19:11:17;6.00;;;4.03;;
19036;SDS011;9651;49.138;8.900;2023-05-07T19:15:19;5.55;;;3.97;;
19036;SDS011;9651;49.138;8.900;2023-05-07T19:19:24;3.95;;;3.10;;
19036;SDS011;9651;49.138;8.900;2023-05-07T19:23:26;3.33;;;2.38;;
19036;SDS011;9651;49.138;8.900;2023-05-07T19:27:28;3.60;;;2.20;;
19036;SDS011;9651;49.138;8.900;2023-05-07T19:31:30;3.92;;;2.53;;
19036;SDS011;9651;49.138;8.900;2023-05-07T19:35:34;3.03;;;2.72;;
19036;SDS011;9651;49.138;8.900;2023-05-07T19:39:36;4.38;;;2.75;;
19036;SDS011;9651;49.138;8.900;2023-05-07T19:43:39;2.50;;;2.30;;
19036;SDS011;9651;49.138;8.900;2023-05-07T19:47:41;2.83;;;2.58;;
19036;SDS011;9651;49.138;8.900;2023-05-07T19:51:45;6.22;;;2.88;;
19036;SDS011;9651;49.138;8.900;2023-05-07T19:55:47;3.63;;;2.95;;
19036;SDS011;9651;49.138;8.900;2023-05-07T19:59:49;7.85;;;3.33;;
19036;SDS011;9651;49.138;8.900;2023-05-07T20:03:50;5.50;;;3.22;;
19036;SDS011;9651;49.138;8.900;2023-05-07T20:07:54;3.45;;;2.65;;
19036;SDS011;9651;49.138;8.900;2023-05-07T20:11:56;8.48;;;3.42;;
19036;SDS011;9651;49.138;8.900;2023-05-07T20:15:58;2.95;;;2.65;;
19036;SDS011;9651;49.138;8.900;2023-05-07T20:20:01;3.65;;;2.85;;
19036;SDS011;9651;49.138;8.900;2023-05-07T20:24:04;3.30;;;3.00;;
19036;SDS011;9651;49.138;8.900;2023-05-07T20:28:07;3.72;;;3.42;;
19036;SDS011;9651;49.138;8.900;2023-05-07T20:32:09;5.32;;;3.80;;
19036;SDS011;9651;49.138;8.900;2023-05-07T20:36:11;4.55;;;3.25;;
19036;SDS011;9651;49.138;8.900;2023-05-07T20:40:14;6.20;;;3.50;;
19036;SDS011;9651;49.138;8.900;2023-05-07T20:44:16;4.18;;;3.00;;
19036;SDS011;9651;49.138;8.900;2023-05-07T20:48:19;5.40;;;3.15;;
19036;SDS011;9651;49.138;8.900;2023-05-07T20:52:21;3.13;;;2.75;;
19036;SDS011;9651;49.138;8.900;2023-05-07T20:56:24;5.15;;;3.20;;
19036;SDS011;9651;49.138;8.900;2023-05-07T21:00:26;3.95;;;3.33;;
19036;SDS011;9651;49.138;8.900;2023-05-07T21:04:28;3.78;;;3.28;;
19036;SDS011;9651;49.138;8.900;2023-05-07T21:08:31;5.50;;;4.20;;
19036;SDS011;9651;49.138;8.900;2023-05-07T21:12:35;4.03;;;3.58;;
19036;SDS011;9651;49.138;8.900;2023-05-07T21:16:38;7.80;;;4.70;;
19036;SDS011;9651;49.138;8.900;2023-05-07T21:20:42;4.55;;;4.15;;
19036;SDS011;9651;49.138;8.900;2023-05-07T21:24:43;4.70;;;4.10;;
19036;SDS011;9651;49.138;8.900;2023-05-07T21:28:47;5.65;;;4.78;;
19036;SDS011;9651;49.138;8.900;2023-05-07T21:32:48;4.90;;;4.40;;
19036;SDS011;9651;49.138;8.900;2023-05-07T21:36:52;7.40;;;4.70;;
19036;SDS011;9651;49.138;8.900;2023-05-07T21:40:53;6.45;;;4.40;;
19036;SDS011;9651;49.138;8.900;2023-05-07T21:44:58;5.22;;;3.97;;
19036;SDS011;9651;49.138;8.900;2023-05-07T21:49:00;6.10;;;4.38;;
19036;SDS011;9651;49.138;8.900;2023-05-07T21:53:01;5.40;;;4.18;;
19036;SDS011;9651;49.138;8.900;2023-05-07T21:57:03;6.40;;;4.30;;
19036;SDS011;9651;49.138;8.900;2023-05-07T22:01:06;8.95;;;5.63;;
19036;SDS011;9651;49.138;8.900;2023-05-07T22:05:11;6.32;;;4.93;;
19036;SDS011;9651;49.138;8.900;2023-05-07T22:09:13;6.20;;;4.75;;
19036;SDS011;9651;49.138;8.900;2023-05-07T22:13:15;6.20;;;4.95;;
19036;SDS011;9651;49.138;8.900;2023-05-07T22:17:18;5.85;;;4.03;;
19036;SDS011;9651;49.138;8.900;2023-05-07T22:21:20;6.88;;;4.93;;
19036;SDS011;9651;49.138;8.900;2023-05-07T22:25:23;7.47;;;4.80;;
19036;SDS011;9651;49.138;8.900;2023-05-07T22:29:25;5.53;;;4.88;;
19036;SDS011;9651;49.138;8.900;2023-05-07T22:33:28;8.50;;;5.93;;
19036;SDS011;9651;49.138;8.900;2023-05-07T22:37:30;7.75;;;6.47;;
19036;SDS011;9651;49.138;8.900;2023-05-07T22:41:32;10.15;;;7.07;;
19036;SDS011;9651;49.138;8.900;2023-05-07T22:45:34;9.75;;;8.20;;
19036;SDS011;9651;49.138;8.900;2023-05-07T22:49:37;8.32;;;7.30;;
19036;SDS011;9651;49.138;8.900;2023-05-07T22:53:40;9.13;;;7.82;;
19036;SDS011;9651;49.138;8.900;2023-05-07T22:57:42;10.30;;;8.25;;
19036;SDS011;9651;49.138;8.900;2023-05-07T23:01:44;10.32;;;8.50;;
19036;SDS011;9651;49.138;8.900;2023-05-07T23:05:47;10.10;;;8.45;;
19036;SDS011;9651;49.138;8.900;2023-05-07T23:09:49;14.23;;;9.60;;
19036;SDS011;9651;49.138;8.900;2023-05-07T23:13:51;9.63;;;8.57;;
19036;SDS011;9651;49.138;8.900;2023-05-07T23:17:53;12.13;;;10.02;;
19036;SDS011;9651;49.138;8.900;2023-05-07T23:21:56;11.32;;;9.05;;
19036;SDS011;9651;49.138;8.900;2023-05-07T23:25:58;9.50;;;7.95;;
19036;SDS011;9651;49.138;8.900;2023-05-07T23:30:00;13.07;;;9.38;;
19036;SDS011;9651;49.138;8.900;2023-05-07T23:34:02;9.95;;;8.82;;
19036;SDS011;9651;49.138;8.900;2023-05-07T23:38:05;11.23;;;10.00;;
19036;SDS011;9651;49.138;8.900;2023-05-07T23:42:07;10.18;;;8.68;;
19036;SDS011;9651;49.138;8.900;2023-05-07T23:46:09;11.10;;;9.60;;
19036;SDS011;9651;49.138;8.900;2023-05-07T23:50:11;10.82;;;9.20;;
19036;SDS011;9651;49.138;8.900;2023-05-07T23:54:14;13.52;;;9.32;;
19036;SDS011;9651;49.138;8.900;2023-05-07T23:58:16;11.73;;;9.50;;
